EGHH/BOH METAR and TAF weather

Enter ICAO airport designator
Station Type Date Time Source
EGHH METAR 2020/09/24 10:20 UTC NOAA

EGHH 241020Z 25014G31KT 4000 1600W SHRAGR BR SCT018 BKN031 09/04 Q0996


Station Type Date Time Source
EGHH Decoded METAR 2020/09/24 10:20 UTC NOAA

Bournemouth Airport, United Kingdom (EGHH) 50-47N 001-50W 0M
Sep 24, 2020 - 06:20 AM EDT / 2020.09.24 1020 UTC
Wind: from the WSW (250 degrees) at 16 MPH (14 KT) gusting to 36 MPH (31 KT):0
Visibility: 2 mile(s):0
Sky conditions: mostly cloudy
Weather: rain showers, hail; mist
Temperature: 48 F (9 C)
Dew Point: 39 F (4 C)
Relative Humidity: 70%
Pressure (altimeter): 29.41 in. Hg (0996 hPa)
ob: EGHH 241020Z 25014G31KT 4000 1600W SHRAGR BR SCT018 BKN031 09/04 Q0996
cycle: 10

Station Type Date Time Source
EGHH TAF 2020/02/21 21:06 UTC NOAA

TAF EGHH 210200Z 2021/2123 CNL

Example: see airport list